Roebuck, Mississippi
Current Conditions -  °F | °C
As of 4:53 PM on Wednesday 22 Oct 2014 (Local Time) from KGWO Reporting Station
Clear Clear  
Wind Chill: 69°   Ceiling: Unl
Heat Index: 69°   Visibility: 10mi
Dew Point: 43°   Wind: 13mph
Humidity: 39%   Direction: 50°NE
Pressure: 30.12"   Gusts: NA
Location:  33.3926°N, 90.1584°W
Report Text: KGWO 222153Z AUTO 05011KT 10SM CLR 21/06 A3012 RMK AO2 SLP199 T02060061 TSNO
Loading
Personal Weather Stations






























Interactive Weather Map
Tropical Storm Tracking
New forecast layout! Learn more

10-Day Weather Forecast

Advertisements
Track Severe Weather on mobile